createdAt,value
2022-12-12T00:04:07.053Z,3.86
2022-12-12T00:09:09.534Z,3.80
2022-12-12T00:14:11.388Z,3.93
2022-12-12T00:19:14.539Z,3.98
2022-12-12T00:24:16.369Z,3.93
2022-12-12T00:29:18.261Z,4.07
2022-12-12T00:34:21.472Z,4.03
2022-12-12T00:39:23.821Z,4.11
2022-12-12T00:44:25.686Z,3.98
2022-12-12T00:49:28.896Z,3.91
2022-12-12T00:54:30.901Z,3.76
2022-12-12T00:59:32.758Z,3.74
2022-12-12T01:04:35.983Z,3.56
2022-12-12T01:09:37.914Z,3.53
2022-12-12T01:14:39.771Z,3.52
2022-12-12T01:19:43.071Z,3.50
2022-12-12T01:24:44.902Z,3.67
2022-12-12T01:29:46.654Z,3.59
2022-12-12T01:34:49.983Z,3.45
2022-12-12T01:39:52.044Z,3.57
2022-12-12T01:44:54.061Z,3.65
2022-12-12T01:49:58.681Z,3.63
2022-12-12T01:55:01.158Z,3.79
2022-12-12T02:00:05.024Z,3.75
2022-12-12T02:05:14.833Z,3.71
2022-12-12T02:10:16.672Z,3.74
2022-12-12T02:15:18.460Z,3.44
2022-12-12T02:20:35.970Z,3.31
2022-12-12T02:25:57.507Z,3.21
2022-12-12T02:31:13.406Z,3.13
2022-12-12T02:36:18.228Z,3.09
2022-12-12T02:41:26.344Z,3.10
2022-12-12T02:46:31.967Z,3.15
2022-12-12T02:51:33.828Z,3.18
2022-12-12T02:56:51.055Z,3.07
2022-12-12T03:02:06.776Z,3.10
2022-12-12T03:07:29.701Z,3.11
2022-12-12T03:12:35.061Z,3.07
2022-12-12T03:17:41.466Z,3.12
2022-12-12T03:22:44.860Z,3.18
2022-12-12T03:27:49.412Z,3.14
2022-12-12T03:32:54.154Z,3.05
2022-12-12T03:37:59.020Z,2.77
2022-12-12T03:43:02.708Z,2.93
2022-12-12T03:48:08.346Z,3.11
2022-12-12T03:53:11.598Z,3.28
2022-12-12T03:58:14.613Z,3.32
2022-12-12T04:03:21.448Z,3.14
2022-12-12T04:08:23.316Z,3.14
2022-12-12T04:13:32.076Z,2.65
2022-12-12T04:18:37.764Z,2.59
2022-12-12T04:23:43.324Z,2.37
2022-12-12T04:28:49.743Z,2.24
2022-12-12T04:33:53.965Z,2.27
2022-12-12T04:38:55.927Z,2.25
2022-12-12T04:43:57.690Z,2.33
2022-12-12T04:49:03.254Z,2.23
2022-12-12T04:54:07.778Z,2.20
2022-12-12T04:59:09.589Z,2.23
2022-12-12T05:04:16.496Z,2.22
2022-12-12T05:09:18.451Z,2.32
2022-12-12T05:14:20.362Z,2.24
2022-12-12T05:19:23.618Z,2.04
2022-12-12T05:24:31.311Z,2.05
2022-12-12T05:29:35.195Z,2.10
2022-12-12T05:34:38.443Z,2.38
2022-12-12T05:39:45.309Z,2.37
2022-12-12T05:44:48.035Z,2.32
2022-12-12T05:49:51.309Z,2.37
2022-12-12T05:54:53.373Z,2.14
2022-12-12T05:59:56.038Z,2.20
2022-12-12T06:04:59.497Z,2.28
2022-12-12T06:10:01.395Z,2.25
2022-12-12T06:15:03.418Z,2.28
2022-12-12T06:20:07.759Z,2.25
2022-12-12T06:25:09.602Z,1.82
2022-12-12T06:30:12.052Z,1.78
2022-12-12T06:35:16.314Z,1.59
2022-12-12T06:40:18.220Z,1.80
2022-12-12T06:45:19.987Z,1.81
2022-12-12T06:50:24.033Z,2.01
2022-12-12T06:55:25.911Z,2.00
2022-12-12T07:00:27.660Z,2.22
2022-12-12T07:05:30.865Z,2.32
2022-12-12T07:10:35.274Z,2.66
2022-12-12T07:15:42.160Z,2.81
2022-12-12T07:20:46.135Z,2.69
2022-12-12T07:25:47.906Z,2.67
2022-12-12T07:30:49.802Z,2.65
2022-12-12T07:35:57.648Z,2.68
2022-12-12T07:41:02.959Z,2.67
2022-12-12T07:46:06.074Z,2.62
2022-12-12T07:51:09.432Z,2.61
2022-12-12T07:56:12.182Z,2.71
2022-12-12T08:01:15.565Z,2.91
2022-12-12T08:06:18.745Z,3.00
2022-12-12T08:11:21.509Z,3.06
2022-12-12T08:16:24.998Z,3.25
2022-12-12T08:21:28.247Z,3.09
2022-12-12T08:26:30.488Z,3.23
2022-12-12T08:31:32.533Z,3.66
2022-12-12T08:36:36.148Z,4.26
2022-12-12T08:41:39.517Z,4.26
2022-12-12T08:46:41.625Z,4.27
2022-12-12T08:51:45.000Z,4.33
2022-12-12T08:56:46.770Z,4.56
2022-12-12T09:01:48.627Z,4.83
2022-12-12T09:06:54.981Z,4.77
2022-12-12T09:11:56.829Z,4.80
2022-12-12T09:16:58.798Z,4.80
2022-12-12T09:22:02.699Z,5.21
2022-12-12T09:27:04.493Z,6.61
2022-12-12T09:32:06.685Z,7.02
2022-12-12T09:37:09.969Z,7.40
2022-12-12T09:42:12.344Z,8.11
2022-12-12T09:47:16.939Z,8.02
2022-12-12T09:52:27.717Z,7.98
2022-12-12T09:57:34.622Z,8.01
2022-12-12T10:02:42.374Z,8.11
2022-12-12T10:07:47.588Z,8.26
2022-12-12T10:12:49.567Z,8.47
2022-12-12T10:17:51.334Z,8.52
2022-12-12T10:22:57.430Z,7.61
2022-12-12T10:28:04.738Z,6.81
2022-12-12T10:33:13.846Z,6.39
2022-12-12T10:38:31.355Z,6.32
2022-12-12T10:43:35.368Z,6.33
2022-12-12T10:48:37.501Z,6.29
2022-12-12T10:53:40.843Z,6.24
2022-12-12T10:58:43.591Z,6.24
2022-12-12T11:03:46.712Z,6.23
2022-12-12T11:08:57.206Z,6.24
2022-12-12T11:14:00.331Z,6.29
2022-12-12T11:19:07.392Z,6.26
2022-12-12T11:24:13.452Z,6.48
2022-12-12T11:29:34.835Z,6.50
2022-12-12T11:34:36.552Z,6.62
2022-12-12T11:39:41.622Z,6.72
2022-12-12T11:44:43.884Z,6.44
2022-12-12T11:49:46.122Z,6.63
2022-12-12T11:54:49.357Z,6.57
2022-12-12T12:00:09.493Z,6.45
2022-12-12T12:05:17.903Z,6.37
2022-12-12T12:10:24.699Z,6.40
2022-12-12T12:15:33.658Z,6.58
2022-12-12T12:20:43.156Z,6.71
2022-12-12T12:25:49.591Z,6.77
2022-12-12T12:30:54.287Z,6.77
2022-12-12T12:36:00.476Z,6.87
2022-12-12T12:41:24.544Z,6.37
2022-12-12T12:46:32.244Z,6.32
2022-12-12T12:51:35.188Z,6.39
2022-12-12T12:56:43.739Z,6.55
2022-12-12T13:01:47.181Z,6.46
2022-12-12T13:06:50.659Z,6.59
2022-12-12T13:11:55.829Z,6.76
2022-12-12T13:17:03.988Z,6.82
2022-12-12T13:22:07.869Z,6.68
2022-12-12T13:27:13.084Z,6.89
2022-12-12T13:32:49.216Z,6.81
2022-12-12T13:37:51.953Z,7.15
2022-12-12T13:42:59.884Z,7.17
2022-12-12T13:48:05.932Z,7.01
2022-12-12T13:53:25.743Z,7.01
2022-12-12T13:58:35.104Z,6.92
2022-12-12T14:03:36.788Z,6.94
2022-12-12T14:08:39.341Z,6.94
2022-12-12T14:13:45.163Z,7.05
2022-12-12T14:18:58.233Z,6.86
2022-12-12T14:23:59.971Z,6.68
2022-12-12T14:29:27.327Z,6.71
2022-12-12T14:34:29.469Z,6.60
2022-12-12T14:39:59.578Z,6.30
2022-12-12T14:45:02.687Z,6.26
2022-12-12T14:50:08.318Z,6.18
2022-12-12T14:55:14.038Z,6.30
2022-12-12T15:00:19.194Z,6.20
2022-12-12T15:05:20.956Z,6.18
2022-12-12T15:10:23.380Z,5.96
2022-12-12T15:15:27.689Z,5.89
2022-12-12T15:20:30.242Z,5.85
2022-12-12T15:25:33.461Z,5.78
2022-12-12T15:30:37.969Z,5.64
2022-12-12T15:35:40.936Z,5.25
2022-12-12T15:40:43.594Z,5.29
2022-12-12T15:45:51.260Z,5.16
2022-12-12T15:50:57.046Z,5.10
2022-12-12T15:56:00.435Z,4.72
2022-12-12T16:01:08.367Z,4.65
2022-12-12T16:06:23.179Z,4.40
2022-12-12T16:11:39.698Z,4.47
2022-12-12T16:16:45.124Z,4.55
2022-12-12T16:21:46.978Z,4.59
2022-12-12T16:26:48.793Z,4.56
2022-12-12T16:31:51.939Z,4.57
2022-12-12T16:36:54.063Z,4.52
2022-12-12T16:41:55.851Z,4.47
2022-12-12T16:46:58.941Z,4.45
2022-12-12T16:52:00.973Z,4.47
2022-12-12T16:57:02.836Z,4.30
2022-12-12T17:02:09.433Z,4.27
2022-12-12T17:07:11.239Z,4.17
2022-12-12T17:12:13.417Z,4.27
2022-12-12T17:17:16.602Z,4.11
2022-12-12T17:22:18.452Z,3.99
2022-12-12T17:27:20.369Z,3.89
2022-12-12T17:32:24.621Z,4.01
2022-12-12T17:37:26.513Z,4.12
2022-12-12T17:42:29.729Z,4.07
2022-12-12T17:47:32.874Z,4.00
2022-12-12T17:52:34.996Z,3.89
2022-12-12T17:57:37.034Z,3.96
2022-12-12T18:02:40.348Z,3.98
2022-12-12T18:07:42.248Z,3.83
2022-12-12T18:12:49.846Z,3.74
2022-12-12T18:17:54.705Z,3.62
2022-12-12T18:22:56.566Z,3.44
2022-12-12T18:27:58.724Z,3.39
2022-12-12T18:33:03.246Z,2.97
2022-12-12T18:38:05.221Z,3.18
2022-12-12T18:43:07.366Z,2.93
2022-12-12T18:48:10.521Z,3.05
2022-12-12T18:53:12.435Z,3.10
2022-12-12T18:58:14.268Z,3.24
2022-12-12T19:03:17.468Z,3.13
2022-12-12T19:08:20.221Z,3.29
2022-12-12T19:13:22.077Z,3.22
2022-12-12T19:18:25.147Z,3.10
2022-12-12T19:23:26.882Z,3.06
2022-12-12T19:28:28.650Z,2.96
2022-12-12T19:33:32.140Z,3.03
2022-12-12T19:38:33.951Z,3.04
2022-12-12T19:43:35.738Z,2.83
2022-12-12T19:48:38.919Z,2.71
2022-12-12T19:53:41.749Z,2.67
2022-12-12T19:58:43.649Z,2.78
2022-12-12T20:03:49.758Z,2.68
2022-12-12T20:08:51.710Z,2.69
2022-12-12T20:13:54.338Z,2.71
2022-12-12T20:18:59.191Z,2.60
2022-12-12T20:24:00.917Z,2.63
2022-12-12T20:29:03.154Z,2.61
2022-12-12T20:34:06.281Z,2.61
2022-12-12T20:39:08.664Z,2.58
2022-12-12T20:44:11.001Z,2.46
2022-12-12T20:49:15.771Z,2.56
2022-12-12T20:54:19.956Z,2.46
2022-12-12T20:59:21.769Z,2.61
2022-12-12T21:04:25.000Z,2.59
2022-12-12T21:09:27.105Z,2.18
2022-12-12T21:14:30.849Z,2.11
2022-12-12T21:19:34.621Z,2.12
2022-12-12T21:24:36.418Z,1.88
2022-12-12T21:29:38.230Z,1.57
2022-12-12T21:34:41.547Z,1.66
2022-12-12T21:39:45.422Z,1.42
2022-12-12T21:44:47.236Z,1.35
2022-12-12T21:49:50.336Z,1.22
2022-12-12T21:54:52.123Z,1.17
2022-12-12T21:59:53.957Z,1.01
2022-12-12T22:04:58.239Z,0.91
2022-12-12T22:10:10.823Z,0.86
2022-12-12T22:15:13.754Z,1.11
2022-12-12T22:20:17.173Z,1.38
2022-12-12T22:25:19.105Z,1.41
2022-12-12T22:30:21.433Z,0.88
2022-12-12T22:35:26.646Z,1.19
2022-12-12T22:40:28.624Z,0.62
2022-12-12T22:45:34.318Z,0.71
2022-12-12T22:50:37.665Z,0.45
2022-12-12T22:55:39.626Z,0.64
2022-12-12T23:00:41.645Z,0.49
2022-12-12T23:05:45.744Z,0.13
2022-12-12T23:10:47.545Z,0.67
2022-12-12T23:15:49.826Z,0.71
2022-12-12T23:20:52.976Z,0.60
2022-12-12T23:25:54.901Z,0.46
2022-12-12T23:30:56.854Z,-0.09
2022-12-12T23:36:00.036Z,-0.18
2022-12-12T23:41:02.983Z,-0.31
2022-12-12T23:46:06.035Z,-0.36
2022-12-12T23:51:09.178Z,-0.66
2022-12-12T23:56:11.058Z,-0.66
